createdAt,value
2023-01-31T00:02:00.793Z,12.38
2023-01-31T00:05:05.216Z,12.53
2023-01-31T00:08:08.388Z,12.58
2023-01-31T00:11:12.136Z,12.69
2023-01-31T00:14:19.920Z,12.71
2023-01-31T00:17:23.709Z,12.70
2023-01-31T00:20:26.975Z,12.81
2023-01-31T00:23:30.221Z,12.75
2023-01-31T00:26:34.994Z,12.53
2023-01-31T00:29:38.524Z,12.62
2023-01-31T00:32:41.741Z,12.81
2023-01-31T00:35:47.314Z,12.84
2023-01-31T00:38:52.402Z,12.99
2023-01-31T00:41:55.669Z,13.02
2023-01-31T00:45:01.169Z,12.93
2023-01-31T00:48:04.537Z,12.92
2023-01-31T00:51:08.096Z,12.91
2023-01-31T00:54:11.747Z,12.91
2023-01-31T00:57:14.972Z,12.96
2023-01-31T01:00:21.497Z,13.02
2023-01-31T01:03:24.775Z,12.88
2023-01-31T01:06:29.181Z,12.91
2023-01-31T01:09:32.484Z,12.89
2023-01-31T01:12:36.393Z,13.04
2023-01-31T01:15:39.910Z,13.21
2023-01-31T01:18:43.751Z,13.40
2023-01-31T01:21:46.962Z,13.18
2023-01-31T01:24:50.217Z,12.93
2023-01-31T01:27:53.585Z,12.94
2023-01-31T01:30:56.805Z,13.04
2023-01-31T01:34:05.637Z,13.20
2023-01-31T01:37:13.824Z,13.14
2023-01-31T01:40:17.647Z,13.11
2023-01-31T01:43:20.911Z,13.31
2023-01-31T01:46:37.707Z,13.32
2023-01-31T01:49:41.369Z,13.46
2023-01-31T01:53:26.243Z,13.40
2023-01-31T01:56:36.760Z,13.41
2023-01-31T01:59:46.825Z,13.33
2023-01-31T02:02:51.957Z,13.35
2023-01-31T02:05:57.487Z,13.30
2023-01-31T02:09:00.867Z,13.32
2023-01-31T02:12:04.356Z,13.03
2023-01-31T02:15:08.530Z,13.15
2023-01-31T02:18:14.757Z,13.32
2023-01-31T02:21:36.044Z,13.38
2023-01-31T02:25:09.544Z,13.43
2023-01-31T02:28:32.840Z,13.18
2023-01-31T02:32:13.311Z,13.35
2023-01-31T02:35:19.880Z,13.24
2023-01-31T02:38:35.116Z,13.27
2023-01-31T02:41:51.660Z,13.36
2023-01-31T02:45:13.219Z,13.14
2023-01-31T02:48:48.601Z,12.98
2023-01-31T02:51:53.160Z,12.86
2023-01-31T02:55:28.438Z,12.83
2023-01-31T02:58:34.578Z,12.61
2023-01-31T03:01:48.680Z,12.64
2023-01-31T03:04:51.991Z,12.63
2023-01-31T03:07:58.288Z,12.60
2023-01-31T03:11:04.359Z,12.45
2023-01-31T03:14:32.920Z,12.34
2023-01-31T03:18:08.618Z,12.53
2023-01-31T03:21:19.580Z,12.47
2023-01-31T03:24:23.327Z,12.45
2023-01-31T03:27:26.793Z,12.46
2023-01-31T03:30:56.948Z,12.47
2023-01-31T03:34:28.738Z,12.23
2023-01-31T03:37:49.091Z,12.18
2023-01-31T03:41:04.349Z,12.18
2023-01-31T03:44:09.359Z,12.14
2023-01-31T03:47:22.591Z,12.04
2023-01-31T03:50:31.292Z,12.07
2023-01-31T03:53:55.657Z,11.68
2023-01-31T03:57:27.595Z,11.81
2023-01-31T04:00:31.221Z,11.95
2023-01-31T04:03:42.470Z,12.00
2023-01-31T04:06:45.767Z,12.10
2023-01-31T04:09:48.970Z,12.08
2023-01-31T04:12:52.297Z,11.88
2023-01-31T04:15:40.517Z,11.91
2023-01-31T04:18:43.918Z,11.95
2023-01-31T04:21:47.245Z,11.97
2023-01-31T04:24:50.496Z,12.03
2023-01-31T04:27:53.795Z,11.99
2023-01-31T04:30:59.204Z,12.19
2023-01-31T04:34:02.510Z,12.09
2023-01-31T04:37:05.787Z,11.97
2023-01-31T04:40:15.296Z,11.89
2023-01-31T04:43:18.668Z,12.09
2023-01-31T04:46:22.099Z,11.88
2023-01-31T04:49:25.282Z,11.93
2023-01-31T04:52:28.734Z,12.02
2023-01-31T04:55:32.951Z,11.73
2023-01-31T04:58:36.768Z,11.78
2023-01-31T05:01:41.343Z,11.69
2023-01-31T05:04:44.570Z,11.75
2023-01-31T05:07:47.840Z,11.81
2023-01-31T05:10:51.054Z,12.05
2023-01-31T05:13:54.674Z,11.73
2023-01-31T05:16:57.901Z,11.66
2023-01-31T05:20:01.173Z,11.80
2023-01-31T05:23:05.057Z,11.67
2023-01-31T05:26:09.625Z,11.59
2023-01-31T05:29:12.812Z,11.44
2023-01-31T05:32:18.626Z,11.40
2023-01-31T05:35:22.201Z,11.43
2023-01-31T05:38:25.697Z,11.47
2023-01-31T05:41:28.980Z,11.55
2023-01-31T05:44:32.215Z,11.55
2023-01-31T05:47:35.573Z,11.35
2023-01-31T05:50:41.599Z,11.39
2023-01-31T05:53:44.729Z,11.47
2023-01-31T05:56:48.029Z,11.43
2023-01-31T05:59:51.269Z,11.55
2023-01-31T06:02:58.438Z,11.54
2023-01-31T06:06:01.710Z,11.41
2023-01-31T06:09:05.025Z,11.32
2023-01-31T06:12:11.426Z,11.59
2023-01-31T06:15:14.667Z,11.71
2023-01-31T06:18:17.830Z,11.49
2023-01-31T06:21:21.003Z,11.18
2023-01-31T06:24:24.162Z,11.39
2023-01-31T06:27:27.453Z,11.07
2023-01-31T06:30:30.938Z,11.24
2023-01-31T06:33:44.695Z,11.44
2023-01-31T06:36:50.111Z,11.24
2023-01-31T06:39:53.349Z,11.15
2023-01-31T06:42:56.660Z,11.09
2023-01-31T06:46:02.443Z,11.10
2023-01-31T06:49:05.610Z,10.87
2023-01-31T06:52:08.827Z,10.91
2023-01-31T06:55:12.146Z,10.99
2023-01-31T06:58:15.543Z,11.05
2023-01-31T07:01:18.982Z,10.98
2023-01-31T07:04:22.367Z,10.74
2023-01-31T07:07:25.729Z,10.42
2023-01-31T07:10:29.282Z,10.69
2023-01-31T07:13:32.723Z,10.67
2023-01-31T07:16:36.059Z,10.45
2023-01-31T07:19:39.236Z,10.55
2023-01-31T07:22:42.473Z,10.62
2023-01-31T07:25:45.840Z,10.45
2023-01-31T07:28:49.483Z,10.38
2023-01-31T07:31:52.864Z,10.34
2023-01-31T07:34:56.185Z,10.12
2023-01-31T07:37:59.414Z,10.22
2023-01-31T07:41:03.683Z,10.48
2023-01-31T07:44:06.944Z,10.20
2023-01-31T07:47:10.412Z,9.99
2023-01-31T07:50:13.642Z,10.02
2023-01-31T07:53:17.117Z,9.94
2023-01-31T07:56:21.957Z,9.89
2023-01-31T07:59:25.165Z,9.80
2023-01-31T08:02:28.451Z,9.76
2023-01-31T08:05:33.939Z,10.03
2023-01-31T08:08:41.071Z,10.12
2023-01-31T08:11:44.374Z,9.81
2023-01-31T08:14:49.894Z,9.71
2023-01-31T08:17:53.219Z,9.82
2023-01-31T08:20:58.174Z,9.84
2023-01-31T08:24:01.439Z,9.92
2023-01-31T08:27:04.652Z,9.73
2023-01-31T08:30:08.897Z,9.60
2023-01-31T08:33:13.198Z,9.68
2023-01-31T08:36:27.797Z,9.50
2023-01-31T08:39:31.035Z,9.27
2023-01-31T08:42:34.250Z,9.22
2023-01-31T08:45:37.725Z,9.28
2023-01-31T08:48:41.042Z,9.08
2023-01-31T08:51:44.447Z,9.07
2023-01-31T08:54:47.711Z,8.90
2023-01-31T08:57:59.302Z,9.14
2023-01-31T09:01:06.618Z,9.02
2023-01-31T09:04:09.826Z,9.11
2023-01-31T09:07:13.073Z,8.84
2023-01-31T09:10:16.426Z,8.79
2023-01-31T09:13:19.831Z,8.84
2023-01-31T09:16:23.142Z,8.92
2023-01-31T09:19:28.745Z,8.94
2023-01-31T09:22:32.353Z,8.79
2023-01-31T09:25:45.757Z,8.89
2023-01-31T09:28:50.851Z,8.88
2023-01-31T09:31:56.634Z,8.86
2023-01-31T09:35:00.432Z,8.72
2023-01-31T09:38:03.643Z,8.45
2023-01-31T09:41:42.045Z,8.56
2023-01-31T09:44:56.882Z,8.35
2023-01-31T09:48:02.038Z,8.45
2023-01-31T09:51:05.977Z,8.50
2023-01-31T09:54:25.013Z,8.43
2023-01-31T09:57:46.487Z,8.48
2023-01-31T10:01:09.826Z,8.41
2023-01-31T10:04:16.335Z,8.18
2023-01-31T10:07:29.851Z,8.23
2023-01-31T10:11:06.245Z,7.74
2023-01-31T10:14:27.959Z,7.84
2023-01-31T10:17:42.914Z,7.96
2023-01-31T10:21:05.205Z,7.89
2023-01-31T10:24:30.388Z,7.85
2023-01-31T10:27:51.357Z,7.79
2023-01-31T10:31:02.243Z,7.90
2023-01-31T10:34:26.639Z,7.88
2023-01-31T10:37:45.429Z,7.70
2023-01-31T10:40:57.114Z,7.78
2023-01-31T10:44:08.688Z,7.76
2023-01-31T10:47:17.283Z,8.02
2023-01-31T10:50:43.816Z,7.85
2023-01-31T10:54:24.505Z,7.68
2023-01-31T10:57:31.610Z,7.49
2023-01-31T11:00:35.111Z,7.31
2023-01-31T11:03:38.936Z,7.77
2023-01-31T11:06:42.805Z,7.62
2023-01-31T11:09:58.800Z,7.52
2023-01-31T11:13:06.255Z,7.33
2023-01-31T11:16:12.659Z,7.44
2023-01-31T11:19:38.024Z,7.35
2023-01-31T11:22:43.536Z,7.35
2023-01-31T11:25:51.421Z,7.38
2023-01-31T11:28:54.658Z,7.49
2023-01-31T11:31:59.049Z,7.29
2023-01-31T11:35:07.827Z,7.31
2023-01-31T11:38:10.970Z,7.19
2023-01-31T11:41:37.895Z,7.22
2023-01-31T11:45:04.461Z,7.33
2023-01-31T11:48:20.513Z,7.19
2023-01-31T11:51:30.156Z,7.00
2023-01-31T11:54:35.323Z,6.85
2023-01-31T11:57:39.875Z,6.84
2023-01-31T12:00:55.622Z,6.88
2023-01-31T12:04:03.838Z,6.77
2023-01-31T12:07:33.500Z,6.97
2023-01-31T12:10:47.294Z,6.89
2023-01-31T12:13:55.034Z,6.77
2023-01-31T12:16:58.019Z,6.65
2023-01-31T12:20:26.568Z,6.53
2023-01-31T12:24:02.419Z,6.74
2023-01-31T12:27:36.624Z,6.80
2023-01-31T12:31:01.468Z,6.70
2023-01-31T12:34:22.980Z,6.81
2023-01-31T12:37:41.715Z,6.74
2023-01-31T12:41:29.905Z,6.69
2023-01-31T12:44:46.977Z,6.36
2023-01-31T12:48:11.420Z,6.57
2023-01-31T12:51:27.810Z,6.33
2023-01-31T12:54:34.185Z,6.45
2023-01-31T12:58:04.792Z,6.32
2023-01-31T13:01:16.771Z,6.24
2023-01-31T13:04:41.625Z,5.97
2023-01-31T13:08:16.961Z,6.21
2023-01-31T13:11:41.677Z,6.21
2023-01-31T13:15:25.794Z,6.29
2023-01-31T13:18:31.325Z,6.17
2023-01-31T13:21:45.606Z,5.94
2023-01-31T13:25:02.554Z,5.89
2023-01-31T13:28:16.825Z,5.97
2023-01-31T13:31:29.289Z,6.07
2023-01-31T13:34:51.219Z,5.92
2023-01-31T13:37:59.396Z,5.79
2023-01-31T13:41:02.235Z,5.72
2023-01-31T13:44:05.621Z,5.69
2023-01-31T13:47:20.927Z,5.62
2023-01-31T13:51:05.955Z,5.59
2023-01-31T13:54:16.803Z,5.85
2023-01-31T13:57:41.624Z,5.77
2023-01-31T14:00:48.239Z,5.76
2023-01-31T14:04:13.192Z,5.92
2023-01-31T14:07:18.877Z,5.87
2023-01-31T14:10:22.071Z,5.78
2023-01-31T14:13:39.152Z,5.89
2023-01-31T14:16:45.153Z,5.76
2023-01-31T14:19:48.345Z,5.67
2023-01-31T14:23:29.486Z,6.03
2023-01-31T14:26:44.842Z,6.00
2023-01-31T14:29:50.015Z,5.98
2023-01-31T14:33:25.500Z,6.00
2023-01-31T14:36:56.748Z,5.79
2023-01-31T14:40:24.775Z,5.78
2023-01-31T14:43:54.696Z,5.87
2023-01-31T14:47:07.723Z,6.00
2023-01-31T14:50:31.949Z,5.87
2023-01-31T14:53:46.934Z,5.92
2023-01-31T14:57:05.295Z,5.82
2023-01-31T15:00:19.189Z,5.94
2023-01-31T15:03:24.334Z,5.66
2023-01-31T15:06:36.733Z,5.59
2023-01-31T15:09:40.642Z,5.62
2023-01-31T15:12:58.374Z,5.78
2023-01-31T15:16:03.533Z,5.69
2023-01-31T15:19:15.343Z,5.60
2023-01-31T15:22:19.711Z,5.68
2023-01-31T15:25:32.682Z,5.82
2023-01-31T15:28:39.376Z,6.00
2023-01-31T15:31:44.589Z,5.89
2023-01-31T15:35:18.602Z,5.87
2023-01-31T15:38:33.418Z,5.84
2023-01-31T15:41:40.147Z,5.74
2023-01-31T15:44:43.389Z,6.00
2023-01-31T15:48:06.256Z,5.80
2023-01-31T15:51:13.210Z,5.83
2023-01-31T15:54:16.928Z,5.70
2023-01-31T15:57:21.196Z,5.78
2023-01-31T16:00:30.859Z,5.81
2023-01-31T16:03:38.142Z,5.87
2023-01-31T16:06:41.475Z,5.59
2023-01-31T16:09:44.984Z,5.72
2023-01-31T16:12:50.191Z,5.68
2023-01-31T16:15:53.857Z,5.75
2023-01-31T16:19:00.178Z,5.88
2023-01-31T16:22:03.560Z,6.11
2023-01-31T16:25:06.995Z,6.12
2023-01-31T16:28:12.537Z,5.87
2023-01-31T16:31:20.488Z,5.96
2023-01-31T16:34:30.078Z,5.76
2023-01-31T16:37:40.874Z,5.88
2023-01-31T16:40:50.327Z,5.85
2023-01-31T16:43:54.212Z,5.96
2023-01-31T16:46:58.259Z,6.23
2023-01-31T16:50:22.600Z,6.16
2023-01-31T16:53:35.856Z,5.79
2023-01-31T16:56:40.714Z,5.87
2023-01-31T16:59:46.629Z,6.03
2023-01-31T17:02:54.286Z,6.18
2023-01-31T17:05:58.387Z,6.23
2023-01-31T17:09:04.284Z,6.35
2023-01-31T17:12:27.694Z,5.95
2023-01-31T17:15:32.167Z,5.97
2023-01-31T17:18:36.592Z,5.98
2023-01-31T17:21:42.511Z,6.40
2023-01-31T17:24:48.435Z,6.32
2023-01-31T17:27:52.028Z,6.23
2023-01-31T17:30:56.135Z,6.32
2023-01-31T17:33:59.884Z,5.89
2023-01-31T17:37:03.950Z,6.15
2023-01-31T17:40:07.710Z,6.39
2023-01-31T17:43:20.420Z,6.47
2023-01-31T17:46:23.934Z,6.54
2023-01-31T17:49:35.335Z,6.38
2023-01-31T17:52:38.616Z,6.09
2023-01-31T17:55:43.416Z,5.97
2023-01-31T17:58:47.409Z,6.18
2023-01-31T18:01:50.817Z,6.54
2023-01-31T18:04:54.076Z,6.52
2023-01-31T18:07:57.614Z,6.35
2023-01-31T18:11:09.769Z,6.36
2023-01-31T18:14:16.592Z,6.33
2023-01-31T18:17:22.248Z,6.42
2023-01-31T18:20:25.652Z,6.28
2023-01-31T18:23:29.210Z,6.52
2023-01-31T18:26:34.243Z,6.19
2023-01-31T18:29:38.288Z,6.36
2023-01-31T18:32:41.572Z,6.26
2023-01-31T18:35:44.804Z,6.22
2023-01-31T18:38:51.637Z,6.47
2023-01-31T18:41:54.942Z,6.09
2023-01-31T18:44:58.245Z,6.21
2023-01-31T18:48:01.443Z,6.19
2023-01-31T18:51:08.134Z,6.33
2023-01-31T18:54:11.408Z,6.21
2023-01-31T18:57:15.862Z,6.29
2023-01-31T19:00:21.527Z,6.43
2023-01-31T19:03:25.702Z,6.46
2023-01-31T19:06:32.286Z,6.34
2023-01-31T19:09:39.380Z,6.47
2023-01-31T19:12:46.201Z,6.29
2023-01-31T19:15:50.298Z,6.47
2023-01-31T19:18:56.029Z,6.32
2023-01-31T19:21:59.292Z,6.45
2023-01-31T19:25:03.803Z,6.35
2023-01-31T19:28:07.033Z,6.39
2023-01-31T19:31:13.923Z,6.54
2023-01-31T19:34:19.227Z,6.74
2023-01-31T19:37:22.406Z,6.52
2023-01-31T19:40:26.908Z,6.72
2023-01-31T19:43:30.129Z,6.69
2023-01-31T19:46:35.906Z,6.67
2023-01-31T19:49:39.681Z,6.62
2023-01-31T19:52:42.944Z,6.58
2023-01-31T19:55:49.444Z,6.48
2023-01-31T19:58:53.236Z,6.60
2023-01-31T20:01:57.567Z,6.70
2023-01-31T20:05:01.605Z,6.75
2023-01-31T20:08:07.341Z,6.55
2023-01-31T20:11:12.223Z,6.59
2023-01-31T20:14:16.605Z,6.85
2023-01-31T20:17:21.258Z,6.69
2023-01-31T20:20:25.214Z,6.53
2023-01-31T20:23:29.671Z,6.26
2023-01-31T20:26:34.144Z,6.30
2023-01-31T20:29:37.876Z,6.44
2023-01-31T20:32:43.410Z,6.06
2023-01-31T20:35:48.278Z,6.35
2023-01-31T20:38:51.566Z,6.63
2023-01-31T20:41:56.767Z,6.23
2023-01-31T20:45:00.225Z,6.35
2023-01-31T20:48:03.713Z,6.39
2023-01-31T20:51:08.749Z,6.38
2023-01-31T20:54:13.927Z,6.16
2023-01-31T20:57:21.046Z,6.13
2023-01-31T21:00:26.315Z,6.25
2023-01-31T21:03:32.252Z,6.28
2023-01-31T21:06:36.495Z,6.23
2023-01-31T21:09:40.194Z,6.13
2023-01-31T21:12:43.705Z,6.42
2023-01-31T21:15:58.270Z,6.46
2023-01-31T21:19:01.965Z,6.33
2023-01-31T21:22:08.011Z,6.38
2023-01-31T21:25:12.080Z,6.21
2023-01-31T21:28:15.443Z,6.31
2023-01-31T21:31:25.569Z,6.40
2023-01-31T21:34:29.790Z,6.45
2023-01-31T21:37:33.780Z,6.43
2023-01-31T21:40:37.617Z,6.42
2023-01-31T21:43:40.902Z,6.34
2023-01-31T21:46:47.786Z,6.10
2023-01-31T21:49:50.994Z,6.23
2023-01-31T21:52:54.237Z,6.27
2023-01-31T21:56:07.558Z,6.29
2023-01-31T21:59:10.863Z,6.30
2023-01-31T22:02:16.596Z,6.21
2023-01-31T22:05:21.109Z,6.17
2023-01-31T22:08:25.253Z,6.08
2023-01-31T22:11:30.448Z,6.05
2023-01-31T22:14:33.696Z,6.29
2023-01-31T22:17:37.093Z,6.45
2023-01-31T22:20:43.168Z,6.50
2023-01-31T22:23:51.055Z,6.29
2023-01-31T22:26:55.166Z,6.19
2023-01-31T22:30:06.593Z,6.29
2023-01-31T22:33:18.969Z,6.20
2023-01-31T22:36:22.664Z,6.22
2023-01-31T22:39:25.914Z,6.25
2023-01-31T22:42:29.782Z,5.93
2023-01-31T22:45:33.603Z,5.85
2023-01-31T22:48:37.980Z,5.76
2023-01-31T22:51:41.577Z,5.95
2023-01-31T22:54:46.587Z,5.96
2023-01-31T22:57:49.887Z,5.92
2023-01-31T23:00:53.389Z,5.99
2023-01-31T23:04:00.652Z,6.05
2023-01-31T23:07:04.220Z,5.96
2023-01-31T23:10:08.517Z,5.84
2023-01-31T23:13:16.642Z,5.98
2023-01-31T23:16:24.851Z,5.99
2023-01-31T23:19:28.378Z,6.17
2023-01-31T23:22:32.451Z,6.02
2023-01-31T23:25:35.879Z,5.80
2023-01-31T23:28:39.359Z,5.74
2023-01-31T23:31:44.345Z,5.73
2023-01-31T23:34:48.257Z,5.76
2023-01-31T23:37:51.598Z,5.80
2023-01-31T23:40:56.659Z,5.75
2023-01-31T23:43:59.930Z,5.62
2023-01-31T23:47:03.811Z,5.54
2023-01-31T23:50:10.341Z,5.43
2023-01-31T23:53:13.621Z,5.51
2023-01-31T23:56:19.510Z,5.54
2023-01-31T23:59:24.387Z,5.51
